createdAt,value
2023-05-16T00:00:45.289Z,9.7360
2023-05-16T00:04:50.456Z,9.8188
2023-05-16T00:06:51.992Z,9.8570
2023-05-16T00:07:54.079Z,9.8813
2023-05-16T00:08:55.929Z,9.9046
2023-05-16T00:09:56.605Z,9.9269
2023-05-16T00:10:57.199Z,9.9494
2023-05-16T00:11:58.425Z,9.9727
2023-05-16T00:13:00.005Z,9.9982
2023-05-16T00:14:00.356Z,10.0213
2023-05-16T00:15:01.894Z,10.0437
2023-05-16T00:16:01.920Z,10.0667
2023-05-16T00:17:04.000Z,10.0912
2023-05-16T00:18:05.400Z,10.1129
2023-05-16T00:19:06.901Z,10.1356
2023-05-16T00:20:06.456Z,10.1564
2023-05-16T00:21:07.100Z,10.1766
2023-05-16T00:22:08.883Z,10.1961
2023-05-16T00:23:10.632Z,10.2166
2023-05-16T00:24:12.531Z,10.2363
2023-05-16T00:25:14.628Z,10.2555
2023-05-16T00:26:16.410Z,10.2753
2023-05-16T00:27:19.069Z,10.2967
2023-05-16T00:28:20.385Z,10.3183
2023-05-16T00:29:21.541Z,10.3382
2023-05-16T00:30:24.155Z,10.3563
2023-05-16T00:31:24.722Z,10.3750
2023-05-16T00:32:25.971Z,10.3933
2023-05-16T00:33:27.052Z,10.4139
2023-05-16T00:34:27.440Z,10.4333
2023-05-16T00:35:28.736Z,10.4500
2023-05-16T00:36:30.777Z,10.4645
2023-05-16T00:37:32.800Z,10.4804
2023-05-16T00:38:33.847Z,10.4968
2023-05-16T00:42:36.500Z,10.5593
2023-05-16T00:43:38.800Z,10.5760
2023-05-16T00:44:40.346Z,10.5914
2023-05-16T00:45:41.025Z,10.6081
2023-05-16T00:50:47.059Z,10.6813
2023-05-16T00:51:47.492Z,10.6951
2023-05-16T00:52:47.608Z,10.7081
2023-05-16T00:53:49.698Z,10.7203
2023-05-16T00:54:51.076Z,10.7324
2023-05-16T00:55:52.477Z,10.7444
2023-05-16T00:56:52.601Z,10.7566
2023-05-16T00:57:54.049Z,10.7671
2023-05-16T00:58:55.113Z,10.7783
2023-05-16T00:59:56.473Z,10.7880
2023-05-16T01:00:56.704Z,10.7990
2023-05-16T01:01:58.068Z,10.8092
2023-05-16T01:02:59.668Z,10.8190
2023-05-16T01:04:01.695Z,10.8287
2023-05-16T01:05:03.035Z,10.8377
2023-05-16T01:06:04.139Z,10.8480
2023-05-16T01:07:06.683Z,10.8565
2023-05-16T01:08:07.305Z,10.8642
2023-05-16T01:16:15.065Z,10.9264
2023-05-16T01:17:16.587Z,10.9347
2023-05-16T01:24:24.370Z,10.9921
2023-05-16T01:25:25.907Z,11.0013
2023-05-16T01:26:26.151Z,11.0092
2023-05-16T01:27:27.437Z,11.0176
2023-05-16T01:30:31.238Z,11.0483
2023-05-16T01:31:31.530Z,11.0593
2023-05-16T01:33:34.681Z,11.0792
2023-05-16T01:34:37.007Z,11.0882
2023-05-16T01:35:38.025Z,11.0967
2023-05-16T01:36:38.677Z,11.1060
2023-05-16T01:37:40.225Z,11.1142
2023-05-16T01:38:41.867Z,11.1222
2023-05-16T01:40:45.149Z,11.1396
2023-05-16T01:41:46.496Z,11.1479
2023-05-16T01:42:47.900Z,11.1548
2023-05-16T01:43:50.444Z,11.1628
2023-05-16T01:44:50.606Z,11.1709
2023-05-16T01:45:51.825Z,11.1785
2023-05-16T01:46:52.692Z,11.1855
2023-05-16T01:47:53.931Z,11.1927
2023-05-16T01:48:55.726Z,11.1988
2023-05-16T01:49:55.895Z,11.2038
2023-05-16T01:51:56.662Z,11.2155
2023-05-16T01:52:59.542Z,11.2216
2023-05-16T01:53:59.665Z,11.2279
2023-05-16T01:55:00.188Z,11.2336
2023-05-16T01:56:00.771Z,11.2396
2023-05-16T02:01:04.852Z,11.2694
2023-05-16T02:04:06.963Z,11.2876
2023-05-16T02:11:12.874Z,11.3222
2023-05-16T02:12:13.584Z,11.3266
2023-05-16T02:13:14.455Z,11.3307
2023-05-16T02:14:16.687Z,11.3349
2023-05-16T02:15:18.086Z,11.3363
2023-05-16T02:16:19.624Z,11.3396
2023-05-16T02:17:20.141Z,11.3417
2023-05-16T02:18:22.099Z,11.3433
2023-05-16T02:19:23.660Z,11.3451
2023-05-16T02:21:24.151Z,11.3476
2023-05-16T02:22:26.376Z,11.3496
2023-05-16T02:23:28.183Z,11.3504
2023-05-16T02:24:29.188Z,11.3509
2023-05-16T02:25:29.504Z,11.3519
2023-05-16T02:26:30.473Z,11.3535
2023-05-16T02:27:32.034Z,11.3549
2023-05-16T02:35:36.200Z,11.3643
2023-05-16T02:36:36.810Z,11.3675
2023-05-16T02:37:38.471Z,11.3691
2023-05-16T02:38:39.985Z,11.3712
2023-05-16T02:39:40.899Z,11.3727
2023-05-16T02:40:42.889Z,11.3752
2023-05-16T02:42:44.900Z,11.3804
2023-05-16T02:43:47.177Z,11.3821
2023-05-16T02:44:46.485Z,11.3853
2023-05-16T02:45:48.639Z,11.3888
2023-05-16T02:46:49.132Z,11.3923
2023-05-16T02:47:49.834Z,11.3951
2023-05-16T02:48:50.383Z,11.3985
2023-05-16T02:49:51.328Z,11.4008
2023-05-16T02:50:52.614Z,11.4033
2023-05-16T02:51:53.994Z,11.4052
2023-05-16T02:52:54.478Z,11.4064
2023-05-16T02:53:56.396Z,11.4098
2023-05-16T02:55:09.780Z,11.4125
2023-05-16T02:55:58.242Z,11.4143
2023-05-16T02:56:59.988Z,11.4154
2023-05-16T02:58:00.339Z,11.4151
2023-05-16T02:59:01.380Z,11.4139
2023-05-16T03:07:09.807Z,11.4112
2023-05-16T03:08:10.357Z,11.4104
2023-05-16T03:09:12.064Z,11.4101
2023-05-16T03:10:13.578Z,11.4100
2023-05-16T03:11:15.074Z,11.4105
2023-05-16T03:12:15.860Z,11.4120
2023-05-16T03:13:18.505Z,11.4130
2023-05-16T03:14:19.477Z,11.4124
2023-05-16T03:15:21.928Z,11.4142
2023-05-16T03:16:23.531Z,11.4152
2023-05-16T03:17:25.077Z,11.4164
2023-05-16T03:18:28.017Z,11.4186
2023-05-16T03:21:31.208Z,11.4232
2023-05-16T03:24:34.466Z,11.4304
2023-05-16T03:25:35.356Z,11.4331
2023-05-16T03:27:39.530Z,11.4387
2023-05-16T03:28:41.133Z,11.4418
2023-05-16T03:29:41.251Z,11.4437
2023-05-16T03:30:42.751Z,11.4464
2023-05-16T03:31:43.652Z,11.4490
2023-05-16T03:32:44.319Z,11.4500
2023-05-16T03:33:47.145Z,11.4516
2023-05-16T03:35:47.693Z,11.4548
2023-05-16T03:36:48.800Z,11.4555
2023-05-16T03:37:48.952Z,11.4546
2023-05-16T03:38:49.929Z,11.4544
2023-05-16T03:49:58.060Z,11.4344
2023-05-16T03:50:59.743Z,11.4322
2023-05-16T03:52:01.200Z,11.4281
2023-05-16T03:53:01.959Z,11.4246
2023-05-16T03:54:03.703Z,11.4209
2023-05-16T03:57:04.774Z,11.4111
2023-05-16T03:58:05.464Z,11.4080
2023-05-16T03:59:08.069Z,11.4069
2023-05-16T04:00:08.814Z,11.4033
2023-05-16T04:01:09.998Z,11.3972
2023-05-16T04:02:12.309Z,11.3938
2023-05-16T04:03:12.317Z,11.3901
2023-05-16T04:04:14.317Z,11.3899
2023-05-16T04:05:16.263Z,11.3912
2023-05-16T04:06:18.980Z,11.3927
2023-05-16T04:07:19.625Z,11.3943
2023-05-16T04:08:21.040Z,11.3958
2023-05-16T04:09:23.729Z,11.3983
2023-05-16T04:10:24.372Z,11.4014
2023-05-16T04:13:28.212Z,11.4121
2023-05-16T04:14:29.169Z,11.4179
2023-05-16T04:15:29.361Z,11.4230
2023-05-16T04:16:31.307Z,11.4317
2023-05-16T04:17:31.801Z,11.4402
2023-05-16T04:18:33.180Z,11.4476
2023-05-16T04:19:33.548Z,11.4540
2023-05-16T04:20:33.607Z,11.4623
2023-05-16T04:21:35.722Z,11.4710
2023-05-16T04:22:36.416Z,11.4786
2023-05-16T04:23:37.162Z,11.4887
2023-05-16T04:24:37.609Z,11.4980
2023-05-16T04:29:42.023Z,11.5453
2023-05-16T04:35:46.637Z,11.6117
2023-05-16T04:37:47.991Z,11.6345
2023-05-16T04:38:49.230Z,11.6466
2023-05-16T04:39:50.509Z,11.6585
2023-05-16T04:40:52.369Z,11.6715
2023-05-16T04:41:54.134Z,11.6834
2023-05-16T04:42:56.077Z,11.7009
2023-05-16T04:43:56.392Z,11.7156
2023-05-16T04:44:57.745Z,11.7307
2023-05-16T04:48:00.136Z,11.7774
2023-05-16T04:54:07.368Z,11.8970
2023-05-16T04:55:07.552Z,11.9192
2023-05-16T04:58:09.058Z,11.9736
2023-05-16T04:59:09.289Z,11.9907
2023-05-16T05:00:09.849Z,12.0078
2023-05-16T05:01:10.790Z,12.0260
2023-05-16T05:02:12.263Z,12.0463
2023-05-16T05:03:12.600Z,12.0657
2023-05-16T05:04:15.195Z,12.0841
2023-05-16T05:05:16.333Z,12.1011
2023-05-16T05:06:16.441Z,12.1153
2023-05-16T05:07:18.240Z,12.1302
2023-05-16T05:08:20.448Z,12.1458
2023-05-16T05:09:21.234Z,12.1607
2023-05-16T05:11:22.431Z,12.1924
2023-05-16T05:12:23.928Z,12.2093
2023-05-16T05:13:25.403Z,12.2276
2023-05-16T05:18:31.914Z,12.3173
2023-05-16T05:19:32.052Z,12.3371
2023-05-16T05:20:33.628Z,12.3582
2023-05-16T05:21:34.571Z,12.3759
2023-05-16T05:22:36.282Z,12.3926
2023-05-16T05:23:37.531Z,12.4105
2023-05-16T05:24:39.019Z,12.4285
2023-05-16T05:25:40.185Z,12.4451
2023-05-16T05:26:41.942Z,12.4636
2023-05-16T05:27:43.865Z,12.4834
2023-05-16T05:28:53.914Z,12.5015
2023-05-16T05:29:46.850Z,12.5206
2023-05-16T05:30:49.081Z,12.5411
2023-05-16T05:31:49.525Z,12.5609
2023-05-16T05:32:52.402Z,12.5826
2023-05-16T05:33:54.484Z,12.6041
2023-05-16T05:34:54.996Z,12.6240
2023-05-16T05:35:55.799Z,12.6467
2023-05-16T05:42:00.380Z,12.8105
2023-05-16T05:44:02.082Z,12.8701
2023-05-16T05:45:02.638Z,12.9030
2023-05-16T05:46:03.467Z,12.9316
2023-05-16T05:47:05.344Z,12.9616
2023-05-16T05:49:05.523Z,13.0260
2023-05-16T05:50:06.728Z,13.0578
2023-05-16T05:51:08.585Z,13.0877
2023-05-16T05:52:08.841Z,13.1172
2023-05-16T05:53:11.076Z,13.1467
2023-05-16T05:54:13.315Z,13.1746
2023-05-16T05:55:13.611Z,13.2048
2023-05-16T05:56:14.154Z,13.2326
2023-05-16T05:57:14.904Z,13.2603
2023-05-16T05:58:17.884Z,13.2864
2023-05-16T05:59:19.512Z,13.3072
2023-05-16T06:00:20.753Z,13.3258
2023-05-16T06:01:21.133Z,13.3429
2023-05-16T06:02:22.661Z,13.3579
2023-05-16T06:03:24.877Z,13.3754
2023-05-16T06:04:25.322Z,13.3912
2023-05-16T06:05:26.289Z,13.4055
2023-05-16T06:06:28.411Z,13.4192
2023-05-16T06:07:29.496Z,13.4320
2023-05-16T06:17:37.026Z,13.5099
2023-05-16T06:18:37.552Z,13.5168
2023-05-16T06:19:38.370Z,13.5233
2023-05-16T06:20:40.335Z,13.5299
2023-05-16T06:21:41.894Z,13.5325
2023-05-16T06:22:42.014Z,13.5313
2023-05-16T06:23:42.336Z,13.5307
2023-05-16T06:24:43.702Z,13.5263
2023-05-16T06:25:45.106Z,13.5216
2023-05-16T06:26:46.266Z,13.5161
2023-05-16T06:27:48.380Z,13.5110
2023-05-16T06:28:49.901Z,13.5069
2023-05-16T06:29:51.836Z,13.5022
2023-05-16T06:30:52.766Z,13.4951
2023-05-16T06:31:55.102Z,13.4869
2023-05-16T06:32:57.165Z,13.4794
2023-05-16T06:33:59.161Z,13.4713
2023-05-16T06:34:59.221Z,13.4675
2023-05-16T06:35:59.462Z,13.4664
2023-05-16T06:37:01.352Z,13.4685
2023-05-16T06:38:01.571Z,13.4716
2023-05-16T06:39:03.231Z,13.4752
2023-05-16T06:40:04.999Z,13.4795
2023-05-16T06:41:05.331Z,13.4852
2023-05-16T06:42:07.446Z,13.4902
2023-05-16T06:43:09.358Z,13.4978
2023-05-16T06:44:10.983Z,13.5085
2023-05-16T06:45:12.820Z,13.5227
2023-05-16T06:46:12.946Z,13.5379
2023-05-16T06:47:14.330Z,13.5519
2023-05-16T06:48:15.418Z,13.5665
2023-05-16T06:49:15.570Z,13.5818
2023-05-16T06:50:17.184Z,13.5979
2023-05-16T06:51:18.122Z,13.6122
2023-05-16T06:52:19.980Z,13.6294
2023-05-16T06:53:20.063Z,13.6439
2023-05-16T06:54:22.546Z,13.6541
2023-05-16T06:56:24.598Z,13.6687
2023-05-16T06:57:25.343Z,13.6741
2023-05-16T06:58:26.883Z,13.6810
2023-05-16T07:07:34.233Z,13.7239
2023-05-16T07:09:36.673Z,13.7232
2023-05-16T07:15:41.785Z,13.7328
2023-05-16T07:17:43.801Z,13.7475
2023-05-16T07:18:45.572Z,13.7628
2023-05-16T07:20:47.503Z,13.8076
2023-05-16T07:21:48.833Z,13.8378
2023-05-16T07:22:50.349Z,13.8724
2023-05-16T07:23:51.325Z,13.9079
2023-05-16T07:24:53.246Z,13.9507
2023-05-16T07:28:57.671Z,14.1125
2023-05-16T07:29:59.684Z,14.1505
2023-05-16T07:31:02.280Z,14.1857
2023-05-16T07:32:03.181Z,14.2123
2023-05-16T07:33:03.826Z,14.2347
2023-05-16T07:34:04.543Z,14.2550
2023-05-16T07:35:04.757Z,14.2769
2023-05-16T07:36:16.205Z,14.2943
2023-05-16T07:37:08.904Z,14.3066
2023-05-16T07:38:10.283Z,14.3144
2023-05-16T07:39:11.780Z,14.3216
2023-05-16T07:40:13.552Z,14.3268
2023-05-16T07:41:14.820Z,14.3311
2023-05-16T07:42:15.841Z,14.3353
2023-05-16T07:43:17.632Z,14.3394
2023-05-16T07:44:19.846Z,14.3399
2023-05-16T07:45:21.346Z,14.3412
2023-05-16T07:53:28.372Z,14.7863
2023-05-16T07:54:29.735Z,14.9211
2023-05-16T07:55:29.889Z,15.0481
2023-05-16T07:56:31.968Z,15.1735
2023-05-16T07:57:33.595Z,15.2992
2023-05-16T07:58:33.895Z,15.4198
2023-05-16T07:59:34.553Z,15.5322
2023-05-16T08:00:36.322Z,15.6360
2023-05-16T08:02:35.979Z,15.8117
2023-05-16T08:03:37.517Z,15.8727
2023-05-16T08:04:39.057Z,15.9312
2023-05-16T08:05:41.984Z,15.9806
2023-05-16T08:06:42.415Z,16.0220
2023-05-16T08:07:43.734Z,16.0527
2023-05-16T08:08:45.413Z,16.0761
2023-05-16T08:09:47.673Z,16.0965
2023-05-16T08:10:49.419Z,16.1150
2023-05-16T08:11:49.455Z,16.1294
2023-05-16T08:12:50.651Z,16.1450
2023-05-16T08:13:51.816Z,16.1635
2023-05-16T08:16:55.213Z,16.2387
2023-05-16T08:17:55.710Z,16.2619
2023-05-16T08:19:58.071Z,16.3118
2023-05-16T08:20:59.841Z,16.3376
2023-05-16T08:22:00.992Z,16.3636
2023-05-16T08:23:01.569Z,16.3831
2023-05-16T08:24:02.066Z,16.3975
2023-05-16T08:25:02.133Z,16.4083
2023-05-16T08:26:03.267Z,16.4159
2023-05-16T08:27:04.369Z,16.4174
2023-05-16T08:28:05.925Z,16.4093
2023-05-16T08:29:07.371Z,16.3957
2023-05-16T08:30:08.958Z,16.3808
2023-05-16T08:32:09.928Z,16.3465
2023-05-16T08:34:10.877Z,16.3016
2023-05-16T08:35:11.174Z,16.2820
2023-05-16T08:37:12.308Z,16.2506
2023-05-16T08:42:14.975Z,16.1926
2023-05-16T08:43:15.821Z,16.1860
2023-05-16T08:46:19.077Z,16.1757
2023-05-16T08:47:19.715Z,16.1725
2023-05-16T08:48:21.357Z,16.1710
2023-05-16T08:49:23.118Z,16.1734
2023-05-16T08:50:23.370Z,16.1774
2023-05-16T08:51:25.293Z,16.1851
2023-05-16T08:52:25.908Z,16.1937
2023-05-16T08:53:28.151Z,16.2041
2023-05-16T08:54:29.524Z,16.2138
2023-05-16T08:55:31.404Z,16.2211
2023-05-16T08:56:31.790Z,16.2239
2023-05-16T08:57:31.817Z,16.2250
2023-05-16T08:58:32.112Z,16.2275
2023-05-16T08:59:32.295Z,16.2362
2023-05-16T09:00:34.255Z,16.2586
2023-05-16T09:01:36.943Z,16.2989
2023-05-16T09:02:37.683Z,16.3535
2023-05-16T09:03:38.780Z,16.4150
2023-05-16T09:04:39.835Z,16.4740
2023-05-16T09:05:41.610Z,16.5298
2023-05-16T09:06:42.654Z,16.5702
2023-05-16T09:07:43.417Z,16.6028
2023-05-16T09:08:45.114Z,16.6224
2023-05-16T09:09:47.575Z,16.6316
2023-05-16T09:10:49.688Z,16.6341
2023-05-16T09:11:50.757Z,16.6340
2023-05-16T09:12:52.901Z,16.6374
2023-05-16T09:13:53.824Z,16.6479
2023-05-16T09:15:54.878Z,16.6862
2023-05-16T09:16:55.752Z,16.7066
2023-05-16T09:17:55.969Z,16.7249
2023-05-16T09:18:57.763Z,16.7440
2023-05-16T09:19:57.912Z,16.7569
2023-05-16T09:20:58.958Z,16.7618
2023-05-16T09:22:00.616Z,16.7645
2023-05-16T09:23:01.142Z,16.7684
2023-05-16T09:24:02.958Z,16.7751
2023-05-16T09:25:04.778Z,16.7841
2023-05-16T09:26:05.023Z,16.7896
2023-05-16T09:43:24.066Z,16.3052
2023-05-16T09:44:25.774Z,16.2319
2023-05-16T09:45:26.527Z,16.1483
2023-05-16T09:46:27.657Z,16.0651
2023-05-16T09:47:28.204Z,15.9853
2023-05-16T09:48:28.467Z,15.9087
2023-05-16T09:49:30.299Z,15.8261
2023-05-16T09:50:32.176Z,15.7523
2023-05-16T09:51:32.485Z,15.6749
2023-05-16T09:52:34.235Z,15.5933
2023-05-16T09:53:35.914Z,15.5130
2023-05-16T09:54:36.791Z,15.4357
2023-05-16T09:55:37.812Z,15.3645
2023-05-16T09:56:38.255Z,15.2945
2023-05-16T09:57:40.463Z,15.2302
2023-05-16T09:58:41.748Z,15.1684
2023-05-16T10:07:57.492Z,14.8456
2023-05-16T10:08:57.597Z,14.7718
2023-05-16T10:09:59.674Z,14.7277
2023-05-16T10:11:02.123Z,14.6856
2023-05-16T10:14:06.000Z,14.6218
2023-05-16T10:15:04.152Z,14.6118
2023-05-16T10:17:06.594Z,14.6004
2023-05-16T10:18:08.686Z,14.5972
2023-05-16T10:23:13.560Z,14.6013
2023-05-16T10:25:15.389Z,14.6131
2023-05-16T10:26:16.558Z,14.6196
2023-05-16T10:27:19.103Z,14.6268
2023-05-16T10:28:17.326Z,14.6356
2023-05-16T10:30:22.126Z,14.6509
2023-05-16T10:33:23.462Z,14.6695
2023-05-16T10:34:24.837Z,14.6756
2023-05-16T10:35:27.677Z,14.6821
2023-05-16T10:36:27.633Z,14.6877
2023-05-16T10:37:29.880Z,14.6930
2023-05-16T10:38:31.948Z,14.6947
2023-05-16T10:39:32.762Z,14.6941
2023-05-16T10:40:33.434Z,14.6893
2023-05-16T10:41:34.044Z,14.6795
2023-05-16T10:43:35.305Z,14.6521
2023-05-16T10:44:37.473Z,14.6308
2023-05-16T10:45:39.050Z,14.6042
2023-05-16T10:54:47.883Z,14.2655
2023-05-16T10:55:48.201Z,14.1090
2023-05-16T10:56:49.298Z,14.0513
2023-05-16T10:57:50.111Z,14.0001
2023-05-16T10:58:52.068Z,13.9488
2023-05-16T10:59:53.385Z,13.9059
2023-05-16T11:00:53.471Z,13.8716
2023-05-16T11:01:55.601Z,13.8471
2023-05-16T11:02:57.945Z,13.8293
2023-05-16T11:07:29.795Z,13.8679
2023-05-16T11:08:30.218Z,13.8801
2023-05-16T11:09:32.064Z,13.8926
2023-05-16T11:10:33.779Z,13.9054
2023-05-16T11:11:34.896Z,13.9174
2023-05-16T11:12:37.084Z,13.9250
2023-05-16T11:13:39.235Z,13.9307
2023-05-16T11:14:40.037Z,13.9337
2023-05-16T11:15:41.924Z,13.9347
2023-05-16T11:16:43.499Z,13.9341
2023-05-16T11:17:46.096Z,13.9309
2023-05-16T11:18:46.059Z,13.9262
2023-05-16T11:19:47.949Z,13.9192
2023-05-16T11:20:50.072Z,13.9135
2023-05-16T11:21:52.066Z,13.9070
2023-05-16T11:22:52.367Z,13.9016
2023-05-16T11:23:53.118Z,13.8991
2023-05-16T11:24:54.869Z,13.8966
2023-05-16T11:25:55.206Z,13.8960
2023-05-16T11:26:57.422Z,13.8917
2023-05-16T11:27:59.324Z,13.8848
2023-05-16T11:28:59.717Z,13.8751
2023-05-16T11:30:02.065Z,13.8618
2023-05-16T11:31:01.763Z,13.8494
2023-05-16T11:32:02.639Z,13.8343
2023-05-16T11:33:03.409Z,13.8166
2023-05-16T11:34:04.027Z,13.7990
2023-05-16T11:35:04.825Z,13.7801
2023-05-16T11:36:14.519Z,13.7591
2023-05-16T11:37:08.083Z,13.7356
2023-05-16T11:38:10.206Z,13.7176
2023-05-16T11:39:11.530Z,13.7002
2023-05-16T11:40:13.009Z,13.6825
2023-05-16T11:41:14.538Z,13.6666
2023-05-16T11:42:14.631Z,13.6548
2023-05-16T11:43:16.489Z,13.6468
2023-05-16T11:44:17.212Z,13.6423
2023-05-16T11:45:18.874Z,13.6389
2023-05-16T11:47:22.805Z,13.6266
2023-05-16T11:48:35.825Z,13.6142
2023-05-16T11:49:26.535Z,13.6034
2023-05-16T11:50:28.786Z,13.5895
2023-05-16T11:51:30.239Z,13.5749
2023-05-16T11:52:30.702Z,13.5610
2023-05-16T11:53:30.834Z,13.5481
2023-05-16T11:55:41.946Z,13.5131
2023-05-16T11:56:35.072Z,13.4904
2023-05-16T11:57:36.702Z,13.4722
2023-05-16T11:58:38.476Z,13.4561
2023-05-16T11:59:40.027Z,13.4392
2023-05-16T12:00:40.094Z,13.4267
2023-05-16T12:01:42.023Z,13.4155
2023-05-16T12:02:44.012Z,13.4072
2023-05-16T12:04:47.871Z,13.3912
2023-05-16T12:05:48.666Z,13.3806
2023-05-16T12:06:50.421Z,13.3690
2023-05-16T12:07:51.640Z,13.3536
2023-05-16T12:08:53.608Z,13.3393
2023-05-16T12:09:55.794Z,13.3264
2023-05-16T12:10:57.897Z,13.3135
2023-05-16T12:11:58.134Z,13.3026
2023-05-16T12:12:59.638Z,13.2955
2023-05-16T12:14:00.998Z,13.2880
2023-05-16T12:15:02.634Z,13.2825
2023-05-16T12:17:05.101Z,13.2811
2023-05-16T12:18:06.772Z,13.2925
2023-05-16T12:19:08.947Z,13.3077
2023-05-16T12:20:08.990Z,13.3268
2023-05-16T12:21:11.058Z,13.3488
2023-05-16T12:22:12.421Z,13.3771
2023-05-16T12:23:14.359Z,13.4071
2023-05-16T12:24:15.406Z,13.4397
2023-05-16T12:25:16.158Z,13.4704
2023-05-16T12:26:16.650Z,13.4989
2023-05-16T12:27:16.945Z,13.5302
2023-05-16T12:28:16.982Z,13.5552
2023-05-16T12:29:18.001Z,13.5769
2023-05-16T12:30:20.226Z,13.5946
2023-05-16T12:31:31.125Z,13.6079
2023-05-16T12:32:22.051Z,13.6180
2023-05-16T12:33:22.795Z,13.6261
2023-05-16T12:34:24.683Z,13.6275
2023-05-16T12:35:25.912Z,13.6236
2023-05-16T12:36:27.060Z,13.6175
2023-05-16T12:37:28.521Z,13.6114
2023-05-16T12:38:30.741Z,13.6071
2023-05-16T12:39:34.391Z,13.6045
2023-05-16T12:40:32.557Z,13.6028
2023-05-16T12:41:33.451Z,13.6029
2023-05-16T12:42:35.473Z,13.6011
2023-05-16T12:43:35.654Z,13.6022
2023-05-16T12:44:36.438Z,13.6018
2023-05-16T12:45:37.954Z,13.6026
2023-05-16T12:46:39.148Z,13.6019
2023-05-16T12:47:40.883Z,13.6021
2023-05-16T12:48:42.329Z,13.6000
2023-05-16T12:49:44.185Z,13.5987
2023-05-16T12:50:45.931Z,13.6003
2023-05-16T12:51:48.090Z,13.6025
2023-05-16T12:52:49.995Z,13.6077
2023-05-16T12:54:08.616Z,13.6143
2023-05-16T12:54:53.531Z,13.6176
2023-05-16T12:55:55.702Z,13.6203
2023-05-16T12:56:56.585Z,13.6232
2023-05-16T12:57:58.889Z,13.6251
2023-05-16T12:59:00.213Z,13.6266
2023-05-16T13:00:02.293Z,13.6278
2023-05-16T13:02:02.507Z,13.6290
2023-05-16T13:03:03.834Z,13.6300
2023-05-16T13:04:06.285Z,13.6295
2023-05-16T13:05:06.129Z,13.6269
2023-05-16T13:06:08.169Z,13.6247
2023-05-16T13:07:08.301Z,13.6198
2023-05-16T13:08:09.573Z,13.6112
2023-05-16T13:09:10.308Z,13.6025
2023-05-16T13:10:12.289Z,13.5952
2023-05-16T13:11:13.466Z,13.5891
2023-05-16T13:14:17.650Z,13.5866
2023-05-16T13:15:18.192Z,13.5876
2023-05-16T13:16:19.532Z,13.5895
2023-05-16T13:17:19.560Z,13.5900
2023-05-16T13:19:21.971Z,13.5886
2023-05-16T13:20:22.753Z,13.5864
2023-05-16T13:22:24.378Z,13.5846
2023-05-16T13:23:26.088Z,13.5795
2023-05-16T13:24:28.312Z,13.5725
2023-05-16T13:25:30.439Z,13.5667
2023-05-16T13:26:31.009Z,13.5645
2023-05-16T13:27:31.089Z,13.5664
2023-05-16T13:28:32.938Z,13.5697
2023-05-16T13:29:34.908Z,13.5740
2023-05-16T13:30:36.938Z,13.5803
2023-05-16T13:31:37.640Z,13.5876
2023-05-16T13:32:39.792Z,13.6005
2023-05-16T13:33:40.127Z,13.6159
2023-05-16T13:34:42.149Z,13.6393
2023-05-16T13:35:43.635Z,13.6593
2023-05-16T13:36:53.779Z,13.6810
2023-05-16T13:47:25.406Z,14.0610
2023-05-16T13:48:27.278Z,14.0878
2023-05-16T13:49:28.896Z,14.1106
2023-05-16T13:50:33.363Z,14.1267
2023-05-16T13:51:29.155Z,14.1371
2023-05-16T13:52:31.237Z,14.1438
2023-05-16T13:53:33.127Z,14.1467
2023-05-16T13:54:33.553Z,14.1463
2023-05-16T13:55:34.727Z,14.1425
2023-05-16T13:56:36.128Z,14.1368
2023-05-16T13:57:38.241Z,14.1321
2023-05-16T14:00:05.739Z,14.1257
2023-05-16T14:00:45.176Z,14.1254
2023-05-16T14:01:41.856Z,14.1255
2023-05-16T14:02:42.276Z,14.1252
2023-05-16T14:03:43.446Z,14.1175
2023-05-16T14:04:46.759Z,14.1027
2023-05-16T14:05:47.374Z,14.0813
2023-05-16T14:06:47.907Z,14.0625
2023-05-16T14:07:49.015Z,14.0425
2023-05-16T14:08:50.163Z,14.0209
2023-05-16T14:09:51.015Z,14.0022
2023-05-16T14:10:53.011Z,13.9843
2023-05-16T14:11:53.794Z,13.9631
2023-05-16T14:12:54.971Z,13.9455
2023-05-16T14:13:56.314Z,13.9338
2023-05-16T14:14:57.368Z,13.9221
2023-05-16T14:15:58.713Z,13.9128
2023-05-16T14:18:00.942Z,13.9040
2023-05-16T14:19:03.198Z,13.8989
2023-05-16T14:20:03.188Z,13.8945
2023-05-16T14:21:04.864Z,13.8901
2023-05-16T14:22:05.308Z,13.8856
2023-05-16T14:23:07.142Z,13.8809
2023-05-16T14:26:12.057Z,13.8761
2023-05-16T14:27:12.313Z,13.8790
2023-05-16T14:28:13.932Z,13.8792
2023-05-16T14:29:15.466Z,13.8797
2023-05-16T14:30:16.888Z,13.8788
2023-05-16T14:31:18.945Z,13.8759
2023-05-16T14:32:19.069Z,13.8697
2023-05-16T14:34:21.310Z,13.8477
2023-05-16T14:35:21.462Z,13.8345
2023-05-16T14:36:22.007Z,13.8184
2023-05-16T14:37:22.782Z,13.8061
2023-05-16T14:38:24.816Z,13.7936
2023-05-16T14:39:26.550Z,13.7818
2023-05-16T14:40:28.292Z,13.7703
2023-05-16T14:41:28.969Z,13.7548
2023-05-16T14:42:29.286Z,13.7415
2023-05-16T14:43:30.656Z,13.7280
2023-05-16T14:44:30.993Z,13.7146
2023-05-16T14:45:32.924Z,13.7009
2023-05-16T14:46:34.797Z,13.6840
2023-05-16T14:47:35.193Z,13.6662
2023-05-16T14:48:35.661Z,13.6459
2023-05-16T14:49:36.111Z,13.6241
2023-05-16T14:50:38.156Z,13.6025
2023-05-16T14:51:39.549Z,13.5842
2023-05-16T14:52:41.645Z,13.5690
2023-05-16T14:53:43.322Z,13.5541
2023-05-16T14:54:43.199Z,13.5366
2023-05-16T14:55:43.486Z,13.5189
2023-05-16T14:58:47.525Z,13.4769
2023-05-16T14:59:47.887Z,13.4651
2023-05-16T15:00:49.431Z,13.4557
2023-05-16T15:01:51.333Z,13.4453
2023-05-16T15:02:52.474Z,13.4394
2023-05-16T15:04:56.460Z,13.4314
2023-05-16T15:05:58.157Z,13.4293
2023-05-16T15:06:58.821Z,13.4252
2023-05-16T15:07:58.897Z,13.4194
2023-05-16T15:08:59.734Z,13.4059
2023-05-16T15:09:59.752Z,13.3893
2023-05-16T15:10:59.802Z,13.3709
2023-05-16T15:12:01.847Z,13.3505
2023-05-16T15:13:03.794Z,13.3275
2023-05-16T15:14:05.686Z,13.2996
2023-05-16T15:15:05.948Z,13.2698
2023-05-16T15:16:07.921Z,13.2410
2023-05-16T15:17:09.834Z,13.2118
2023-05-16T15:18:10.284Z,13.1837
2023-05-16T15:19:10.861Z,13.1604
2023-05-16T15:20:11.177Z,13.1395
2023-05-16T15:21:13.143Z,13.1236
2023-05-16T15:22:13.822Z,13.1114
2023-05-16T15:23:14.953Z,13.1028
2023-05-16T15:24:15.836Z,13.1025
2023-05-16T15:25:16.397Z,13.1082
2023-05-16T15:26:16.750Z,13.1191
2023-05-16T15:27:16.824Z,13.1367
2023-05-16T15:28:18.737Z,13.1560
2023-05-16T15:29:18.252Z,13.1753
2023-05-16T15:30:19.697Z,13.1942
2023-05-16T15:31:21.249Z,13.2109
2023-05-16T15:32:22.465Z,13.2268
2023-05-16T15:33:22.657Z,13.2384
2023-05-16T15:34:24.188Z,13.2431
2023-05-16T15:35:25.730Z,13.2441
2023-05-16T15:36:27.629Z,13.2408
2023-05-16T15:37:28.534Z,13.2341
2023-05-16T15:38:30.258Z,13.2244
2023-05-16T15:39:32.373Z,13.2125
2023-05-16T15:40:32.841Z,13.2039
2023-05-16T15:42:35.955Z,13.1840
2023-05-16T15:44:37.020Z,13.1615
2023-05-16T15:45:39.871Z,13.1509
2023-05-16T15:46:38.308Z,13.1433
2023-05-16T15:47:40.094Z,13.1400
2023-05-16T15:48:41.337Z,13.1425
2023-05-16T15:49:42.528Z,13.1486
2023-05-16T15:51:45.504Z,13.1687
2023-05-16T15:52:45.932Z,13.1760
2023-05-16T15:53:45.997Z,13.1821
2023-05-16T15:54:47.656Z,13.1873
2023-05-16T15:55:47.929Z,13.1904
2023-05-16T15:56:49.250Z,13.1907
2023-05-16T15:59:52.831Z,13.1884
2023-05-16T16:00:54.599Z,13.1866
2023-05-16T16:01:54.727Z,13.1858
2023-05-16T16:02:56.882Z,13.1824
2023-05-16T16:03:57.307Z,13.1770
2023-05-16T16:04:59.081Z,13.1672
2023-05-16T16:06:00.378Z,13.1497
2023-05-16T16:07:02.052Z,13.1303
2023-05-16T16:08:03.231Z,13.1083
2023-05-16T16:09:05.212Z,13.0864
2023-05-16T16:10:06.314Z,13.0642
2023-05-16T16:11:07.930Z,13.0430
2023-05-16T16:12:08.637Z,13.0198
2023-05-16T16:13:10.658Z,12.9964
2023-05-16T16:14:12.180Z,12.9667
2023-05-16T16:15:13.069Z,12.9430
2023-05-16T16:16:13.398Z,12.9145
2023-05-16T16:17:15.495Z,12.8845
2023-05-16T16:18:17.613Z,12.8474
2023-05-16T16:19:19.535Z,12.8180
2023-05-16T16:20:21.400Z,12.7898
2023-05-16T16:21:23.461Z,12.7639
2023-05-16T16:22:24.914Z,12.7390